Flight Track Log - Related Links

Times and Time Zones

All times are in EDT time to prevent confusion due to time zone crossing. See the FLG4222 flight status page for this flight to view local times or setup timezone preferences in your user account.

Time Position Orientation Groundspeed Altitude Reporting Facility
EDT Latitude Longitude Course Direction KTS MPH feet Rate Location/Type
Mon 11:54:24 AM 42.1314 -76.1286 291° West 193 222 8,600  Level New York Center
Mon 11:55:24 AM 42.1664 -76.2322 295° West 251 289 10,500 1,500 Climbing New York Center
Mon 11:56:24 AM 42.2067 -76.3475 295° West 296 341 11,600 1,371 Climbing New York Center
Mon 11:57:00 AM 42.2278 -76.6293 289° West  Level Estimated
Mon 11:57:09 AM 42.2406 -76.4472 295° West 353 406 12,900  Level Cleveland Center
Mon 11:58:11 AM 42.2806 -76.5717 294° West 360 414 14,000 537 Climbing Cleveland Center
Mon 11:59:12 AM 42.3219 -76.6964 294° West 365 420 14,000 244 Level Cleveland Center
Mon 12:00:14 PM 42.3619 -76.8208 294° West 364 419 14,500 919 Climbing Cleveland Center
Mon 12:01:16 PM 42.4011 -76.9408 294° West 354 407 15,900 1,403 Climbing Cleveland Center
Mon 12:02:18 PM 42.4492 -77.0931 293° West 363 418 17,400 1,210 Climbing Cleveland Center
Mon 12:03:20 PM 42.4908 -77.2244 293° West 376 433 18,400 1,016 Climbing Cleveland Center
Mon 12:04:22 PM 42.5333 -77.3586 293° West 385 443 19,500 976 Climbing Cleveland Center
Mon 12:05:23 PM 42.5736 -77.4875 293° West 388 447 20,400 927 Climbing Cleveland Center
Mon 12:06:25 PM 42.6161 -77.6233 293° West 389 448 21,400 968 Climbing Cleveland Center
Mon 12:07:27 PM 42.6606 -77.7619 294° West 402 463 22,400 1,016 Climbing Cleveland Center
Mon 12:08:29 PM 42.7000 -77.9225 289° West 405 466 23,500 774 Climbing Cleveland Center
Mon 12:09:31 PM 42.7019 -78.0747 271° West 409 471 24,000 484 Climbing Cleveland Center
Mon 12:10:33 PM 42.7044 -78.2325 271° West 413 475 24,500 484 Climbing Cleveland Center
Mon 12:11:35 PM 42.7056 -78.3925 271° West 422 486 25,000 532 Climbing Cleveland Center
Mon 12:12:37 PM 42.7100 -78.5869 272° West 433 498 25,600 484 Climbing Cleveland Center
Mon 12:13:39 PM 42.7106 -78.7508 270° West 433 498 26,000 194 Climbing Cleveland Center
Mon 12:14:41 PM 42.7117 -78.9178 271° West 442 509 26,000  Level Cleveland Center
Mon 12:15:43 PM 42.7142 -79.0853 271° West 446 513 26,000  Level Cleveland Center
Mon 12:16:45 PM 42.7142 -79.2550 270° West 450 518 26,000  Level Cleveland Center
Mon 12:17:47 PM 42.7142 -79.4592 270° West 450 518 26,000  Level Cleveland Center
Mon 12:18:50 PM 42.7136 -79.6297 270° West 452 520 26,000  Level Cleveland Center
Mon 12:19:52 PM 42.7131 -79.7983 270° West 449 517 26,000  Level Cleveland Center
Mon 12:20:54 PM 42.7133 -79.9714 270° West 444 511 26,000  Level Cleveland Center
Mon 12:21:56 PM 42.7103 -80.1369 269° West 441 507 26,000  Level Cleveland Center
Mon 12:22:58 PM 42.7094 -80.3058 270° West 442 509 26,000  Level Cleveland Center
Mon 12:24:00 PM 42.7094 -80.4692 270° West 431 496 26,000  Level Cleveland Center
Mon 12:25:02 PM 42.7078 -80.6575 269° West 424 488 26,000 -194 Level Cleveland Center
Mon 12:26:04 PM 42.7072 -80.8214 270° West 430 495 25,600 -677 Descending Cleveland Center
Mon 12:27:06 PM 42.6944 -80.9803 264° West 422 486 24,600 -774 Descending Cleveland Center
Mon 12:28:08 PM 42.6781 -81.1375 262° West 418 481 24,000 -290 Descending Cleveland Center
Mon 12:29:10 PM 42.6603 -81.2919 261° West 413 475 24,000  Level Cleveland Center
Mon 12:30:12 PM 42.6417 -81.4472 261° West 415 478 24,000 -145 Level Cleveland Center
Mon 12:31:14 PM 42.6250 -81.5969 261° West 398 458 23,700 -1,104 Descending Cleveland Center
Mon 12:32:17 PM 42.6056 -81.7519 260° West 361 415 21,700 -1,776 Descending Cleveland Center
Mon 12:33:19 PM 42.5900 -81.8836 261° West 352 405 20,000 -1,548 Descending Cleveland Center
Mon 12:34:21 PM 42.5758 -82.0039 261° West 330 380 18,500 -1,403 Descending Cleveland Center
Mon 12:35:23 PM 42.5603 -82.1239 260° West 325 374 17,100 -1,500 Descending Cleveland Center
Mon 12:36:05 PM 42.5517 -82.2153 263° West 317 365 15,900 -1,452 Descending Cleveland Center
Mon 12:36:25 PM 42.5456 -82.2392 251° West 315 362 15,600 -1,535 Descending Cleveland Center
Mon 12:36:48 PM 42.5397 -82.2986 262° West 302 348 14,800 -1,355 Descending Cleveland Center
Mon 12:37:27 PM 42.5322 -82.3489 259° West 302 348 14,200 -1,164 Descending Cleveland Center
Mon 12:37:55 PM 42.5250 -82.4214 262° West 295 339 13,500 -1,355 Descending Cleveland Center
Mon 12:38:29 PM 42.5158 -82.4783 258° West 294 338 12,800 -1,320 Descending Cleveland Center
Mon 12:38:45 PM 42.5125 -82.5103 262° West 286 329 12,400 -774 Descending Cleveland Center
Mon 12:39:31 PM 42.4947 -82.5778 250° West 281 323 12,000 -537 Descending Cleveland Center
Mon 12:39:52 PM 42.4842 -82.6142 249° West 237 273 11,800 -968 Descending Cleveland Center
Mon 12:40:33 PM 42.4606 -82.6581 234° Southwest 252 290 11,000 -1,279 Descending Cleveland Center
Mon 12:40:53 PM 42.4494 -82.6889 244° Southwest 230 265 10,500 -1,258 Descending Cleveland Center
Mon 12:41:35 PM 42.4283 -82.7281 234° Southwest 230 265 9,700 -1,452 Descending Cleveland Center
Mon 12:41:55 PM 42.4150 -82.7606 241° Southwest 220 253 9,000 -1,452 Descending Cleveland Center
Mon 12:42:37 PM 42.3953 -82.7972 234° Southwest 222 255 8,200 -1,082 Descending Cleveland Center
Mon 12:42:56 PM 42.3828 -82.8297 243° Southwest 220 253 7,900 -774 Descending Cleveland Center
Mon 12:43:39 PM 42.3611 -82.8594 225° Southwest 210 242 7,400 -871 Descending Cleveland Center
Mon 12:43:58 PM 42.3433 -82.8839 225° Southwest 191 220 7,000 -387 Descending Cleveland Center
Mon 12:44:41 PM 42.3161 -82.9208 225° Southwest 194 223 7,000  Level Cleveland Center
Mon 12:44:59 PM 42.3058 -82.9381 231° Southwest 193 222 7,000  Level Cleveland Center
Mon 12:45:43 PM 42.2789 -82.9733 224° Southwest 193 222 7,000  Level Cleveland Center
Mon 12:46:00 PM 42.2683 -82.9922 233° Southwest 194 223 7,000  Level Cleveland Center
Mon 12:46:45 PM 42.2419 -83.0250 223° Southwest 192 221 7,000  Level Cleveland Center
Mon 12:47:01 PM 42.2308 -83.0436 231° Southwest 196 226 7,000  Level Cleveland Center
Mon 12:47:48 PM 42.2353 -83.0906 277° West 209 241 7,000  Level Cleveland Center
Mon 12:47:56 PM 42.2428 -83.1072 301° West 209 241 7,000 -387 Level Cleveland Center
Mon 12:48:50 PM 42.2789 -83.1317 333° Northwest 224 258 6,600 -536 Descending Cleveland Center
Mon 12:48:52 PM 42.2894 -83.1278 15° North 235 270 6,500 -581 Descending Cleveland Center
Mon 12:49:52 PM 42.3356 -83.0922 30° Northeast 231 266 6,000 -492 Descending Cleveland Center
Mon 12:49:53 PM 42.3472 -83.0847 25° Northeast 223 257 6,000  Level Cleveland Center
Mon 12:50:54 PM 42.3956 -83.0481 29° Northeast 213 245 6,000  Level Cleveland Center
Mon 12:51:00 PM 42.4006 -83.0442 30° Northeast 202 232 6,000  Level Cleveland Center
Mon 12:51:56 PM 42.4414 -83.0036 36° Northeast 205 236 6,000  Level Cleveland Center
Mon 12:52:07 PM 42.4544 -82.9950 26° Northeast 207 238 6,000  Level Cleveland Center
Mon 12:52:58 PM 42.4900 -82.9614 35° Northeast 206 237 6,000  Level Cleveland Center
Mon 12:53:09 PM 42.5069 -82.9653 350° North 203 234 6,000  Level Cleveland Center
Mon 12:55:05 PM 42.5214 -83.0806 280° West 162 186 6,000  Level Cleveland Center
Mon 12:56:00 PM 42.4953 -83.1222 230° Southwest 159 183 6,000  Level Cleveland Center
Mon 12:56:04 PM 42.4925 -83.1222 180° South 159 183 6,000  Level Cleveland Center
Mon 12:57:01 PM 42.4569 -83.1564 215° Southwest 160 184 6,000  Level Cleveland Center
Mon 12:57:06 PM 42.4572 -83.1558 56° Northeast 159 183 6,000 -787 Level Cleveland Center
Mon 12:58:02 PM 42.4189 -83.1881 212° Southwest 157 181 5,200 -774 Descending Cleveland Center
Mon 12:58:08 PM 42.4178 -83.1858 124° Southeast 161 185 5,200 -794 Level Cleveland Center
Mon 12:59:10 PM 42.3747 -83.2186 209° Southwest 159 183 4,300 -823 Descending Cleveland Center
Mon 01:00:12 PM 42.3403 -83.2431 208° Southwest 160 184 3,500 -893 Descending Cleveland Center
Mon 01:01:11 PM 42.2969 -83.2756 209° Southwest 157 181 2,500 -871 Descending Cleveland Center
Mon 01:01:14 PM 42.3014 -83.2708 38° Northeast 158 182 2,600 -764 Climbing Cleveland Center
Mon 01:02:06 PM 42.2656 -83.3022 213° Southwest 141 162 1,800 -774 Descending Cleveland Center
Mon 01:02:16 PM 42.2647 -83.2997 114° Southeast 155 178 1,800 -787 Level Cleveland Center
Mon 01:03:07 PM 42.2303 -83.3253 209° Southwest 140 161 1,000 -571 Descending Cleveland Center
Mon 01:03:19 PM 42.2278 -83.3258 189° South 146 168 1,200 1,000 Climbing Cleveland Center

Login

Don't have an account? Register now (free) for customized features, flight alerts, and more!